RJCC/CTS METAR and TAF weather

Enter ICAO airport designator
Station Type Date Time Source
RJCC METAR 2019/05/27 09:30 UTC NOAA

RJCC 270930Z 16010KT CAVOK 20/09 Q1009 RMK A2982


Station Type Date Time Source
RJCC Decoded METAR 2019/05/27 09:30 UTC NOAA

Chitose Ab, Japan (RJCC) 42-48N 141-40E 30M
May 27, 2019 - 05:30 AM EDT / 2019.05.27 0930 UTC
Wind: from the SSE (160 degrees) at 12 MPH (10 KT):0
Visibility: greater than 7 mile(s):0
Temperature: 68 F (20 C)
Dew Point: 48 F (9 C)
Relative Humidity: 49%
Pressure (altimeter): 29.80 in. Hg (1009 hPa)
ob: RJCC 270930Z 16010KT CAVOK 20/09 Q1009 RMK A2982
cycle: 9

Station Type Date Time Source
RJCC TAF 2019/05/27 06:30 UTC NOAA

TAF TAF RJCC 270505Z 2706/2812 17015KT 9999 FEW040
BECMG 2711/2713 18005KT
BECMG 2800/2803 17020KT
TEMPO 2803/2809 FEW004 BKN008
BECMG 2809/2812 17006KT

Example: see airport list